sensor_id;sensor_type;location;lat;lon;timestamp;P1;durP1;ratioP1;P2;durP2;ratioP2
59876;SDS011;45749;51.140;17.184;2023-06-26T00:01:30;7.43;;;6.18;;
59876;SDS011;45749;51.140;17.184;2023-06-26T00:03:56;7.85;;;6.20;;
59876;SDS011;45749;51.140;17.184;2023-06-26T00:06:23;9.77;;;6.80;;
59876;SDS011;45749;51.140;17.184;2023-06-26T00:08:50;8.02;;;6.43;;
59876;SDS011;45749;51.140;17.184;2023-06-26T00:11:20;7.07;;;6.18;;
59876;SDS011;45749;51.140;17.184;2023-06-26T00:13:46;9.30;;;6.15;;
59876;SDS011;45749;51.140;17.184;2023-06-26T00:16:11;8.00;;;5.50;;
59876;SDS011;45749;51.140;17.184;2023-06-26T00:18:36;7.15;;;6.22;;
59876;SDS011;45749;51.140;17.184;2023-06-26T00:21:02;9.82;;;6.78;;
59876;SDS011;45749;51.140;17.184;2023-06-26T00:23:27;7.55;;;6.13;;
59876;SDS011;45749;51.140;17.184;2023-06-26T00:25:53;7.63;;;6.20;;
59876;SDS011;45749;51.140;17.184;2023-06-26T00:28:18;11.27;;;6.20;;
59876;SDS011;45749;51.140;17.184;2023-06-26T00:30:43;9.07;;;6.40;;
59876;SDS011;45749;51.140;17.184;2023-06-26T00:33:09;8.57;;;6.90;;
59876;SDS011;45749;51.140;17.184;2023-06-26T00:35:34;6.47;;;5.38;;
59876;SDS011;45749;51.140;17.184;2023-06-26T00:38:00;8.98;;;7.10;;
59876;SDS011;45749;51.140;17.184;2023-06-26T00:40:25;9.48;;;6.57;;
59876;SDS011;45749;51.140;17.184;2023-06-26T00:42:51;8.35;;;6.82;;
59876;SDS011;45749;51.140;17.184;2023-06-26T00:45:17;8.82;;;6.72;;
59876;SDS011;45749;51.140;17.184;2023-06-26T00:47:42;10.35;;;7.15;;
59876;SDS011;45749;51.140;17.184;2023-06-26T00:50:08;8.48;;;6.93;;
59876;SDS011;45749;51.140;17.184;2023-06-26T00:52:33;8.20;;;6.18;;
59876;SDS011;45749;51.140;17.184;2023-06-26T00:54:59;9.40;;;7.05;;
59876;SDS011;45749;51.140;17.184;2023-06-26T00:57:24;9.70;;;7.22;;
59876;SDS011;45749;51.140;17.184;2023-06-26T00:59:50;9.95;;;6.43;;
59876;SDS011;45749;51.140;17.184;2023-06-26T01:02:15;7.75;;;6.53;;
59876;SDS011;45749;51.140;17.184;2023-06-26T01:04:53;7.75;;;5.63;;
59876;SDS011;45749;51.140;17.184;2023-06-26T01:07:19;11.23;;;7.07;;
59876;SDS011;45749;51.140;17.184;2023-06-26T01:09:46;9.48;;;7.57;;
59876;SDS011;45749;51.140;17.184;2023-06-26T01:12:12;9.48;;;7.15;;
59876;SDS011;45749;51.140;17.184;2023-06-26T01:14:38;8.48;;;7.05;;
59876;SDS011;45749;51.140;17.184;2023-06-26T01:17:04;9.15;;;6.45;;
59876;SDS011;45749;51.140;17.184;2023-06-26T01:19:31;8.95;;;6.07;;
59876;SDS011;45749;51.140;17.184;2023-06-26T01:22:00;9.52;;;7.40;;
59876;SDS011;45749;51.140;17.184;2023-06-26T01:24:37;11.60;;;7.47;;
59876;SDS011;45749;51.140;17.184;2023-06-26T01:27:04;11.23;;;7.47;;
59876;SDS011;45749;51.140;17.184;2023-06-26T01:29:30;9.60;;;7.03;;
59876;SDS011;45749;51.140;17.184;2023-06-26T01:31:57;12.35;;;8.45;;
59876;SDS011;45749;51.140;17.184;2023-06-26T01:34:24;9.80;;;7.72;;
59876;SDS011;45749;51.140;17.184;2023-06-26T01:36:49;11.20;;;8.13;;
59876;SDS011;45749;51.140;17.184;2023-06-26T01:39:15;10.05;;;8.27;;
59876;SDS011;45749;51.140;17.184;2023-06-26T01:41:42;21.95;;;8.75;;
59876;SDS011;45749;51.140;17.184;2023-06-26T01:44:14;11.02;;;8.23;;
59876;SDS011;45749;51.140;17.184;2023-06-26T01:47:02;9.32;;;7.63;;
59876;SDS011;45749;51.140;17.184;2023-06-26T01:52:14;11.40;;;7.47;;
59876;SDS011;45749;51.140;17.184;2023-06-26T01:57:38;10.75;;;7.65;;
59876;SDS011;45749;51.140;17.184;2023-06-26T02:00:04;10.93;;;7.40;;
59876;SDS011;45749;51.140;17.184;2023-06-26T02:02:31;10.73;;;7.18;;
59876;SDS011;45749;51.140;17.184;2023-06-26T02:04:56;12.18;;;8.93;;
59876;SDS011;45749;51.140;17.184;2023-06-26T02:07:22;12.90;;;7.25;;
59876;SDS011;45749;51.140;17.184;2023-06-26T02:09:47;10.63;;;7.47;;
59876;SDS011;45749;51.140;17.184;2023-06-26T02:12:12;12.52;;;7.72;;
59876;SDS011;45749;51.140;17.184;2023-06-26T02:14:38;12.60;;;6.97;;
59876;SDS011;45749;51.140;17.184;2023-06-26T02:17:04;9.45;;;6.85;;
59876;SDS011;45749;51.140;17.184;2023-06-26T02:19:29;11.02;;;7.18;;
59876;SDS011;45749;51.140;17.184;2023-06-26T02:21:54;9.25;;;6.55;;
59876;SDS011;45749;51.140;17.184;2023-06-26T02:24:20;9.00;;;6.53;;
59876;SDS011;45749;51.140;17.184;2023-06-26T02:26:45;9.18;;;6.93;;
59876;SDS011;45749;51.140;17.184;2023-06-26T02:29:11;10.80;;;7.57;;
59876;SDS011;45749;51.140;17.184;2023-06-26T02:31:37;9.73;;;7.22;;
59876;SDS011;45749;51.140;17.184;2023-06-26T02:34:02;9.10;;;7.70;;
59876;SDS011;45749;51.140;17.184;2023-06-26T02:36:28;9.43;;;7.20;;
59876;SDS011;45749;51.140;17.184;2023-06-26T02:38:53;11.77;;;7.40;;
59876;SDS011;45749;51.140;17.184;2023-06-26T02:41:18;8.40;;;7.45;;
59876;SDS011;45749;51.140;17.184;2023-06-26T02:43:44;10.73;;;7.35;;
59876;SDS011;45749;51.140;17.184;2023-06-26T02:46:09;10.13;;;8.02;;
59876;SDS011;45749;51.140;17.184;2023-06-26T02:48:34;10.18;;;6.55;;
59876;SDS011;45749;51.140;17.184;2023-06-26T02:51:00;9.98;;;7.22;;
59876;SDS011;45749;51.140;17.184;2023-06-26T02:53:25;11.23;;;7.40;;
59876;SDS011;45749;51.140;17.184;2023-06-26T02:55:50;11.85;;;8.13;;
59876;SDS011;45749;51.140;17.184;2023-06-26T02:58:16;10.07;;;8.52;;
59876;SDS011;45749;51.140;17.184;2023-06-26T03:00:41;10.95;;;7.65;;
59876;SDS011;45749;51.140;17.184;2023-06-26T03:03:07;10.10;;;7.25;;
59876;SDS011;45749;51.140;17.184;2023-06-26T03:05:32;9.35;;;6.25;;
59876;SDS011;45749;51.140;17.184;2023-06-26T03:07:58;8.90;;;6.78;;
59876;SDS011;45749;51.140;17.184;2023-06-26T03:10:23;8.63;;;6.68;;
59876;SDS011;45749;51.140;17.184;2023-06-26T03:12:49;8.83;;;6.60;;
59876;SDS011;45749;51.140;17.184;2023-06-26T03:15:14;8.82;;;6.57;;
59876;SDS011;45749;51.140;17.184;2023-06-26T03:17:39;15.30;;;7.28;;
59876;SDS011;45749;51.140;17.184;2023-06-26T03:20:05;10.63;;;6.38;;
59876;SDS011;45749;51.140;17.184;2023-06-26T03:22:32;9.57;;;7.00;;
59876;SDS011;45749;51.140;17.184;2023-06-26T03:24:57;8.63;;;7.38;;
59876;SDS011;45749;51.140;17.184;2023-06-26T03:27:23;11.57;;;7.13;;
59876;SDS011;45749;51.140;17.184;2023-06-26T03:29:48;8.77;;;6.70;;
59876;SDS011;45749;51.140;17.184;2023-06-26T03:32:13;9.60;;;6.25;;
59876;SDS011;45749;51.140;17.184;2023-06-26T03:34:39;11.15;;;7.05;;
59876;SDS011;45749;51.140;17.184;2023-06-26T03:37:04;13.00;;;8.30;;
59876;SDS011;45749;51.140;17.184;2023-06-26T03:39:30;9.35;;;6.68;;
59876;SDS011;45749;51.140;17.184;2023-06-26T03:41:55;10.55;;;6.75;;
59876;SDS011;45749;51.140;17.184;2023-06-26T03:44:22;8.95;;;6.70;;
59876;SDS011;45749;51.140;17.184;2023-06-26T03:46:47;12.55;;;7.88;;
59876;SDS011;45749;51.140;17.184;2023-06-26T03:49:12;9.17;;;7.20;;
59876;SDS011;45749;51.140;17.184;2023-06-26T03:51:38;10.45;;;7.43;;
59876;SDS011;45749;51.140;17.184;2023-06-26T03:54:03;10.18;;;7.25;;
59876;SDS011;45749;51.140;17.184;2023-06-26T03:56:29;11.38;;;8.45;;
59876;SDS011;45749;51.140;17.184;2023-06-26T03:58:54;10.68;;;8.25;;
59876;SDS011;45749;51.140;17.184;2023-06-26T04:01:20;11.07;;;8.20;;
59876;SDS011;45749;51.140;17.184;2023-06-26T04:03:46;10.07;;;8.27;;
59876;SDS011;45749;51.140;17.184;2023-06-26T04:06:11;10.57;;;8.27;;
59876;SDS011;45749;51.140;17.184;2023-06-26T04:08:37;13.20;;;9.30;;
59876;SDS011;45749;51.140;17.184;2023-06-26T04:11:02;10.10;;;7.88;;
59876;SDS011;45749;51.140;17.184;2023-06-26T04:13:27;9.93;;;7.40;;
59876;SDS011;45749;51.140;17.184;2023-06-26T04:15:53;11.05;;;7.97;;
59876;SDS011;45749;51.140;17.184;2023-06-26T04:18:18;11.07;;;7.88;;
59876;SDS011;45749;51.140;17.184;2023-06-26T04:21:03;10.55;;;7.38;;
59876;SDS011;45749;51.140;17.184;2023-06-26T04:23:33;10.00;;;7.32;;
59876;SDS011;45749;51.140;17.184;2023-06-26T04:25:59;8.73;;;7.47;;
59876;SDS011;45749;51.140;17.184;2023-06-26T04:28:24;13.02;;;8.68;;
59876;SDS011;45749;51.140;17.184;2023-06-26T04:30:50;16.13;;;9.60;;
59876;SDS011;45749;51.140;17.184;2023-06-26T04:33:15;13.68;;;8.93;;
59876;SDS011;45749;51.140;17.184;2023-06-26T04:35:40;12.07;;;9.20;;
59876;SDS011;45749;51.140;17.184;2023-06-26T04:38:06;12.65;;;9.57;;
59876;SDS011;45749;51.140;17.184;2023-06-26T04:40:32;12.75;;;8.40;;
59876;SDS011;45749;51.140;17.184;2023-06-26T04:42:57;13.68;;;9.55;;
59876;SDS011;45749;51.140;17.184;2023-06-26T04:45:22;13.00;;;8.98;;
59876;SDS011;45749;51.140;17.184;2023-06-26T04:47:48;13.45;;;9.88;;
59876;SDS011;45749;51.140;17.184;2023-06-26T04:50:13;12.07;;;8.57;;
59876;SDS011;45749;51.140;17.184;2023-06-26T04:52:39;12.60;;;9.05;;
59876;SDS011;45749;51.140;17.184;2023-06-26T04:55:04;13.25;;;9.45;;
59876;SDS011;45749;51.140;17.184;2023-06-26T04:57:29;13.43;;;10.38;;
59876;SDS011;45749;51.140;17.184;2023-06-26T04:59:55;18.25;;;10.20;;
59876;SDS011;45749;51.140;17.184;2023-06-26T05:02:20;16.00;;;9.60;;
59876;SDS011;45749;51.140;17.184;2023-06-26T05:04:45;12.25;;;9.73;;
59876;SDS011;45749;51.140;17.184;2023-06-26T05:07:12;16.65;;;10.93;;
59876;SDS011;45749;51.140;17.184;2023-06-26T05:09:37;14.75;;;10.35;;
59876;SDS011;45749;51.140;17.184;2023-06-26T05:12:04;13.45;;;9.98;;
59876;SDS011;45749;51.140;17.184;2023-06-26T05:14:29;11.98;;;9.65;;
59876;SDS011;45749;51.140;17.184;2023-06-26T05:16:55;15.93;;;10.77;;
59876;SDS011;45749;51.140;17.184;2023-06-26T05:19:20;13.10;;;9.68;;
59876;SDS011;45749;51.140;17.184;2023-06-26T05:21:45;14.02;;;11.02;;
59876;SDS011;45749;51.140;17.184;2023-06-26T05:24:11;16.80;;;12.00;;
59876;SDS011;45749;51.140;17.184;2023-06-26T05:26:38;20.52;;;11.25;;
59876;SDS011;45749;51.140;17.184;2023-06-26T05:29:04;18.27;;;11.45;;
59876;SDS011;45749;51.140;17.184;2023-06-26T05:31:30;14.95;;;10.13;;
59876;SDS011;45749;51.140;17.184;2023-06-26T05:33:58;15.60;;;10.60;;
59876;SDS011;45749;51.140;17.184;2023-06-26T05:36:27;16.77;;;11.30;;
59876;SDS011;45749;51.140;17.184;2023-06-26T05:38:54;13.52;;;10.43;;
59876;SDS011;45749;51.140;17.184;2023-06-26T05:41:21;21.88;;;17.35;;
59876;SDS011;45749;51.140;17.184;2023-06-26T05:43:47;16.85;;;11.93;;
59876;SDS011;45749;51.140;17.184;2023-06-26T05:46:12;13.20;;;10.23;;
59876;SDS011;45749;51.140;17.184;2023-06-26T05:48:38;16.17;;;9.00;;
59876;SDS011;45749;51.140;17.184;2023-06-26T05:51:04;13.80;;;10.48;;
59876;SDS011;45749;51.140;17.184;2023-06-26T05:53:30;13.40;;;9.25;;
59876;SDS011;45749;51.140;17.184;2023-06-26T05:55:55;12.30;;;9.77;;
59876;SDS011;45749;51.140;17.184;2023-06-26T05:58:21;12.93;;;9.02;;
59876;SDS011;45749;51.140;17.184;2023-06-26T06:00:49;18.02;;;9.93;;
59876;SDS011;45749;51.140;17.184;2023-06-26T06:03:14;22.25;;;10.52;;
59876;SDS011;45749;51.140;17.184;2023-06-26T06:05:39;13.13;;;8.57;;
59876;SDS011;45749;51.140;17.184;2023-06-26T06:08:05;15.40;;;9.27;;
59876;SDS011;45749;51.140;17.184;2023-06-26T06:10:30;11.98;;;8.02;;
59876;SDS011;45749;51.140;17.184;2023-06-26T06:12:55;12.25;;;7.20;;
59876;SDS011;45749;51.140;17.184;2023-06-26T06:15:21;12.48;;;7.82;;
59876;SDS011;45749;51.140;17.184;2023-06-26T06:17:46;10.63;;;7.68;;
59876;SDS011;45749;51.140;17.184;2023-06-26T06:20:11;9.95;;;8.60;;
59876;SDS011;45749;51.140;17.184;2023-06-26T06:22:36;13.52;;;6.65;;
59876;SDS011;45749;51.140;17.184;2023-06-26T06:25:02;9.45;;;7.05;;
59876;SDS011;45749;51.140;17.184;2023-06-26T06:27:27;13.07;;;8.18;;
59876;SDS011;45749;51.140;17.184;2023-06-26T06:29:53;11.98;;;7.00;;
59876;SDS011;45749;51.140;17.184;2023-06-26T06:32:18;11.30;;;7.18;;
59876;SDS011;45749;51.140;17.184;2023-06-26T06:34:44;8.65;;;7.25;;
59876;SDS011;45749;51.140;17.184;2023-06-26T06:37:09;11.23;;;6.93;;
59876;SDS011;45749;51.140;17.184;2023-06-26T06:39:34;16.27;;;8.75;;
59876;SDS011;45749;51.140;17.184;2023-06-26T06:42:00;9.68;;;6.95;;
59876;SDS011;45749;51.140;17.184;2023-06-26T06:44:25;13.43;;;9.10;;
59876;SDS011;45749;51.140;17.184;2023-06-26T06:46:50;9.07;;;6.72;;
59876;SDS011;45749;51.140;17.184;2023-06-26T06:49:16;10.98;;;5.95;;
59876;SDS011;45749;51.140;17.184;2023-06-26T06:51:41;9.95;;;6.93;;
59876;SDS011;45749;51.140;17.184;2023-06-26T06:54:06;8.63;;;6.45;;
59876;SDS011;45749;51.140;17.184;2023-06-26T06:56:32;8.57;;;6.53;;
59876;SDS011;45749;51.140;17.184;2023-06-26T06:58:57;8.80;;;6.95;;
59876;SDS011;45749;51.140;17.184;2023-06-26T07:01:22;10.55;;;6.38;;
59876;SDS011;45749;51.140;17.184;2023-06-26T07:03:48;8.02;;;6.68;;
59876;SDS011;45749;51.140;17.184;2023-06-26T07:06:13;8.05;;;5.68;;
59876;SDS011;45749;51.140;17.184;2023-06-26T07:08:38;10.20;;;6.38;;
59876;SDS011;45749;51.140;17.184;2023-06-26T07:11:04;10.65;;;7.28;;
59876;SDS011;45749;51.140;17.184;2023-06-26T07:13:29;12.88;;;6.70;;
59876;SDS011;45749;51.140;17.184;2023-06-26T07:15:54;6.75;;;5.45;;
59876;SDS011;45749;51.140;17.184;2023-06-26T07:18:20;6.07;;;5.35;;
59876;SDS011;45749;51.140;17.184;2023-06-26T07:20:45;6.78;;;5.47;;
59876;SDS011;45749;51.140;17.184;2023-06-26T07:23:10;7.73;;;5.27;;
59876;SDS011;45749;51.140;17.184;2023-06-26T07:25:36;9.63;;;6.25;;
59876;SDS011;45749;51.140;17.184;2023-06-26T07:28:01;7.07;;;6.07;;
59876;SDS011;45749;51.140;17.184;2023-06-26T07:30:27;7.75;;;6.03;;
59876;SDS011;45749;51.140;17.184;2023-06-26T07:32:52;7.68;;;6.55;;
59876;SDS011;45749;51.140;17.184;2023-06-26T07:35:18;11.80;;;6.85;;
59876;SDS011;45749;51.140;17.184;2023-06-26T07:37:43;6.55;;;5.40;;
59876;SDS011;45749;51.140;17.184;2023-06-26T07:40:09;8.38;;;5.95;;
59876;SDS011;45749;51.140;17.184;2023-06-26T07:42:35;7.93;;;5.47;;
59876;SDS011;45749;51.140;17.184;2023-06-26T07:45:00;6.53;;;5.18;;
59876;SDS011;45749;51.140;17.184;2023-06-26T07:47:26;5.57;;;4.85;;
59876;SDS011;45749;51.140;17.184;2023-06-26T07:49:51;5.13;;;4.63;;
59876;SDS011;45749;51.140;17.184;2023-06-26T07:52:17;6.28;;;5.07;;
59876;SDS011;45749;51.140;17.184;2023-06-26T07:54:43;5.53;;;4.82;;
59876;SDS011;45749;51.140;17.184;2023-06-26T07:57:09;8.63;;;5.32;;
59876;SDS011;45749;51.140;17.184;2023-06-26T07:59:36;6.70;;;5.32;;
59876;SDS011;45749;51.140;17.184;2023-06-26T08:02:01;7.25;;;4.95;;
59876;SDS011;45749;51.140;17.184;2023-06-26T08:04:28;9.15;;;5.00;;
59876;SDS011;45749;51.140;17.184;2023-06-26T08:06:55;9.23;;;5.45;;
59876;SDS011;45749;51.140;17.184;2023-06-26T08:09:22;8.07;;;5.28;;
59876;SDS011;45749;51.140;17.184;2023-06-26T08:11:49;6.93;;;5.00;;
59876;SDS011;45749;51.140;17.184;2023-06-26T08:14:15;9.00;;;5.72;;
59876;SDS011;45749;51.140;17.184;2023-06-26T08:16:41;5.60;;;4.68;;
59876;SDS011;45749;51.140;17.184;2023-06-26T08:19:07;8.30;;;5.88;;
59876;SDS011;45749;51.140;17.184;2023-06-26T08:21:33;9.15;;;5.95;;
59876;SDS011;45749;51.140;17.184;2023-06-26T08:23:58;7.88;;;5.57;;
59876;SDS011;45749;51.140;17.184;2023-06-26T08:26:24;7.05;;;5.85;;
59876;SDS011;45749;51.140;17.184;2023-06-26T08:28:49;7.93;;;5.40;;
59876;SDS011;45749;51.140;17.184;2023-06-26T08:31:15;10.57;;;4.77;;
59876;SDS011;45749;51.140;17.184;2023-06-26T08:33:41;4.78;;;4.28;;
59876;SDS011;45749;51.140;17.184;2023-06-26T08:36:06;7.78;;;4.35;;
59876;SDS011;45749;51.140;17.184;2023-06-26T08:38:32;5.50;;;4.82;;
59876;SDS011;45749;51.140;17.184;2023-06-26T08:40:58;5.18;;;4.15;;
59876;SDS011;45749;51.140;17.184;2023-06-26T08:43:24;5.50;;;5.00;;
59876;SDS011;45749;51.140;17.184;2023-06-26T08:45:51;5.30;;;4.80;;
59876;SDS011;45749;51.140;17.184;2023-06-26T08:48:17;6.30;;;4.88;;
59876;SDS011;45749;51.140;17.184;2023-06-26T08:50:43;6.15;;;5.13;;
59876;SDS011;45749;51.140;17.184;2023-06-26T08:55:48;5.18;;;4.65;;
59876;SDS011;45749;51.140;17.184;2023-06-26T08:58:16;8.00;;;5.43;;
59876;SDS011;45749;51.140;17.184;2023-06-26T09:00:42;8.15;;;5.00;;
59876;SDS011;45749;51.140;17.184;2023-06-26T09:03:08;5.45;;;4.60;;
59876;SDS011;45749;51.140;17.184;2023-06-26T09:05:34;11.40;;;8.73;;
59876;SDS011;45749;51.140;17.184;2023-06-26T09:08:00;9.52;;;5.78;;
59876;SDS011;45749;51.140;17.184;2023-06-26T09:10:26;7.20;;;5.15;;
59876;SDS011;45749;51.140;17.184;2023-06-26T09:12:51;6.18;;;4.82;;
59876;SDS011;45749;51.140;17.184;2023-06-26T09:15:21;5.90;;;4.40;;
59876;SDS011;45749;51.140;17.184;2023-06-26T09:17:47;11.82;;;5.20;;
59876;SDS011;45749;51.140;17.184;2023-06-26T09:20:13;4.95;;;4.50;;
59876;SDS011;45749;51.140;17.184;2023-06-26T09:22:40;6.38;;;4.82;;
59876;SDS011;45749;51.140;17.184;2023-06-26T09:25:07;7.93;;;4.38;;
59876;SDS011;45749;51.140;17.184;2023-06-26T09:27:34;5.57;;;4.40;;
59876;SDS011;45749;51.140;17.184;2023-06-26T09:30:01;5.35;;;4.15;;
59876;SDS011;45749;51.140;17.184;2023-06-26T09:32:28;6.78;;;4.28;;
59876;SDS011;45749;51.140;17.184;2023-06-26T09:34:53;5.25;;;4.32;;
59876;SDS011;45749;51.140;17.184;2023-06-26T09:37:22;5.40;;;3.95;;
59876;SDS011;45749;51.140;17.184;2023-06-26T09:39:48;5.18;;;3.42;;
59876;SDS011;45749;51.140;17.184;2023-06-26T09:42:14;5.03;;;4.20;;
59876;SDS011;45749;51.140;17.184;2023-06-26T09:44:46;4.57;;;4.18;;
59876;SDS011;45749;51.140;17.184;2023-06-26T09:47:15;5.15;;;3.78;;
59876;SDS011;45749;51.140;17.184;2023-06-26T09:49:43;5.35;;;3.83;;
59876;SDS011;45749;51.140;17.184;2023-06-26T09:52:08;4.45;;;3.65;;
59876;SDS011;45749;51.140;17.184;2023-06-26T09:54:33;6.60;;;4.80;;
59876;SDS011;45749;51.140;17.184;2023-06-26T09:57:07;4.22;;;3.22;;
59876;SDS011;45749;51.140;17.184;2023-06-26T09:59:33;6.07;;;4.32;;
59876;SDS011;45749;51.140;17.184;2023-06-26T10:01:59;5.68;;;4.63;;
59876;SDS011;45749;51.140;17.184;2023-06-26T10:04:25;3.95;;;3.40;;
59876;SDS011;45749;51.140;17.184;2023-06-26T10:06:50;4.07;;;3.30;;
59876;SDS011;45749;51.140;17.184;2023-06-26T10:09:19;5.40;;;3.97;;
59876;SDS011;45749;51.140;17.184;2023-06-26T10:12:01;4.82;;;3.42;;
59876;SDS011;45749;51.140;17.184;2023-06-26T10:14:31;3.85;;;3.03;;
59876;SDS011;45749;51.140;17.184;2023-06-26T10:17:11;4.55;;;3.78;;
59876;SDS011;45749;51.140;17.184;2023-06-26T10:19:41;4.35;;;3.92;;
59876;SDS011;45749;51.140;17.184;2023-06-26T10:22:09;5.53;;;3.97;;
59876;SDS011;45749;51.140;17.184;2023-06-26T10:24:37;5.55;;;3.80;;
59876;SDS011;45749;51.140;17.184;2023-06-26T10:27:21;4.85;;;3.85;;
59876;SDS011;45749;51.140;17.184;2023-06-26T10:29:52;6.53;;;3.97;;
59876;SDS011;45749;51.140;17.184;2023-06-26T10:32:20;4.50;;;3.85;;
59876;SDS011;45749;51.140;17.184;2023-06-26T10:34:48;3.78;;;3.33;;
59876;SDS011;45749;51.140;17.184;2023-06-26T10:37:14;3.95;;;3.20;;
59876;SDS011;45749;51.140;17.184;2023-06-26T10:39:45;4.45;;;3.53;;
59876;SDS011;45749;51.140;17.184;2023-06-26T10:42:15;5.22;;;3.72;;
59876;SDS011;45749;51.140;17.184;2023-06-26T10:44:44;4.95;;;3.40;;
59876;SDS011;45749;51.140;17.184;2023-06-26T10:47:11;4.50;;;3.60;;
59876;SDS011;45749;51.140;17.184;2023-06-26T10:49:53;4.20;;;3.80;;
59876;SDS011;45749;51.140;17.184;2023-06-26T10:52:18;3.73;;;3.43;;
59876;SDS011;45749;51.140;17.184;2023-06-26T10:54:44;4.10;;;3.63;;
59876;SDS011;45749;51.140;17.184;2023-06-26T10:57:09;4.22;;;3.83;;
59876;SDS011;45749;51.140;17.184;2023-06-26T10:59:38;4.35;;;3.67;;
59876;SDS011;45749;51.140;17.184;2023-06-26T11:02:04;4.95;;;3.47;;
59876;SDS011;45749;51.140;17.184;2023-06-26T11:04:37;4.53;;;3.70;;
59876;SDS011;45749;51.140;17.184;2023-06-26T11:07:20;5.90;;;3.70;;
59876;SDS011;45749;51.140;17.184;2023-06-26T11:12:36;4.07;;;3.67;;
59876;SDS011;45749;51.140;17.184;2023-06-26T11:15:09;4.78;;;3.50;;
59876;SDS011;45749;51.140;17.184;2023-06-26T11:17:36;7.55;;;3.90;;
59876;SDS011;45749;51.140;17.184;2023-06-26T11:20:02;5.38;;;3.10;;
59876;SDS011;45749;51.140;17.184;2023-06-26T11:22:30;5.88;;;4.50;;
59876;SDS011;45749;51.140;17.184;2023-06-26T11:24:59;3.75;;;2.85;;
59876;SDS011;45749;51.140;17.184;2023-06-26T11:27:26;7.55;;;3.25;;
59876;SDS011;45749;51.140;17.184;2023-06-26T11:29:58;4.00;;;3.55;;
59876;SDS011;45749;51.140;17.184;2023-06-26T11:32:25;3.40;;;3.10;;
59876;SDS011;45749;51.140;17.184;2023-06-26T11:34:51;4.03;;;3.60;;
59876;SDS011;45749;51.140;17.184;2023-06-26T11:37:17;4.53;;;3.57;;
59876;SDS011;45749;51.140;17.184;2023-06-26T11:39:42;4.70;;;3.10;;
59876;SDS011;45749;51.140;17.184;2023-06-26T11:42:07;3.83;;;3.10;;
59876;SDS011;45749;51.140;17.184;2023-06-26T11:44:39;3.30;;;2.97;;
59876;SDS011;45749;51.140;17.184;2023-06-26T11:47:06;3.72;;;3.38;;
59876;SDS011;45749;51.140;17.184;2023-06-26T11:49:31;3.05;;;2.75;;
59876;SDS011;45749;51.140;17.184;2023-06-26T11:51:57;5.00;;;2.92;;
59876;SDS011;45749;51.140;17.184;2023-06-26T11:54:23;2.88;;;2.47;;
59876;SDS011;45749;51.140;17.184;2023-06-26T11:56:56;3.80;;;2.95;;
59876;SDS011;45749;51.140;17.184;2023-06-26T11:59:23;3.85;;;2.70;;
59876;SDS011;45749;51.140;17.184;2023-06-26T12:01:50;3.13;;;2.75;;
59876;SDS011;45749;51.140;17.184;2023-06-26T12:04:17;8.13;;;3.47;;
59876;SDS011;45749;51.140;17.184;2023-06-26T12:06:46;4.20;;;2.90;;
59876;SDS011;45749;51.140;17.184;2023-06-26T12:09:13;4.28;;;3.53;;
59876;SDS011;45749;51.140;17.184;2023-06-26T12:11:42;4.22;;;3.08;;
59876;SDS011;45749;51.140;17.184;2023-06-26T12:14:09;3.55;;;2.85;;
59876;SDS011;45749;51.140;17.184;2023-06-26T12:16:36;3.97;;;3.15;;
59876;SDS011;45749;51.140;17.184;2023-06-26T12:19:02;4.57;;;3.25;;
59876;SDS011;45749;51.140;17.184;2023-06-26T12:24:10;3.75;;;3.20;;
59876;SDS011;45749;51.140;17.184;2023-06-26T12:26:40;4.07;;;2.97;;
59876;SDS011;45749;51.140;17.184;2023-06-26T12:29:09;3.28;;;2.97;;
59876;SDS011;45749;51.140;17.184;2023-06-26T12:31:39;4.15;;;3.03;;
59876;SDS011;45749;51.140;17.184;2023-06-26T12:34:13;3.45;;;2.90;;
59876;SDS011;45749;51.140;17.184;2023-06-26T12:36:46;6.32;;;3.13;;
59876;SDS011;45749;51.140;17.184;2023-06-26T12:39:16;4.18;;;3.10;;
59876;SDS011;45749;51.140;17.184;2023-06-26T12:41:47;3.88;;;3.03;;
59876;SDS011;45749;51.140;17.184;2023-06-26T12:44:26;3.95;;;3.55;;
59876;SDS011;45749;51.140;17.184;2023-06-26T12:46:57;4.05;;;3.63;;
59876;SDS011;45749;51.140;17.184;2023-06-26T12:49:36;4.63;;;3.20;;
59876;SDS011;45749;51.140;17.184;2023-06-26T12:52:06;3.65;;;2.75;;
59876;SDS011;45749;51.140;17.184;2023-06-26T12:54:35;3.65;;;3.10;;
59876;SDS011;45749;51.140;17.184;2023-06-26T12:57:01;3.70;;;2.83;;
59876;SDS011;45749;51.140;17.184;2023-06-26T12:59:30;4.60;;;3.00;;
59876;SDS011;45749;51.140;17.184;2023-06-26T13:01:57;3.35;;;3.05;;
59876;SDS011;45749;51.140;17.184;2023-06-26T13:04:23;4.07;;;3.00;;
59876;SDS011;45749;51.140;17.184;2023-06-26T13:06:48;3.05;;;2.75;;
59876;SDS011;45749;51.140;17.184;2023-06-26T13:12:03;3.65;;;2.67;;
59876;SDS011;45749;51.140;17.184;2023-06-26T13:14:30;3.83;;;3.25;;
59876;SDS011;45749;51.140;17.184;2023-06-26T13:16:56;4.90;;;3.30;;
59876;SDS011;45749;51.140;17.184;2023-06-26T13:19:21;4.30;;;3.07;;
59876;SDS011;45749;51.140;17.184;2023-06-26T13:21:46;4.73;;;2.87;;
59876;SDS011;45749;51.140;17.184;2023-06-26T13:24:12;3.38;;;3.08;;
59876;SDS011;45749;51.140;17.184;2023-06-26T13:26:38;3.33;;;3.00;;
59876;SDS011;45749;51.140;17.184;2023-06-26T13:29:03;5.63;;;2.88;;
59876;SDS011;45749;51.140;17.184;2023-06-26T13:31:29;3.65;;;2.90;;
59876;SDS011;45749;51.140;17.184;2023-06-26T13:33:56;4.77;;;3.70;;
59876;SDS011;45749;51.140;17.184;2023-06-26T13:36:23;5.28;;;2.90;;
59876;SDS011;45749;51.140;17.184;2023-06-26T13:38:48;3.47;;;3.08;;
59876;SDS011;45749;51.140;17.184;2023-06-26T13:43:46;3.30;;;2.80;;
59876;SDS011;45749;51.140;17.184;2023-06-26T13:46:11;4.10;;;2.97;;
59876;SDS011;45749;51.140;17.184;2023-06-26T13:48:36;4.33;;;2.93;;
59876;SDS011;45749;51.140;17.184;2023-06-26T13:51:02;3.90;;;2.73;;
59876;SDS011;45749;51.140;17.184;2023-06-26T13:53:27;6.03;;;3.30;;
59876;SDS011;45749;51.140;17.184;2023-06-26T13:55:52;3.58;;;2.75;;
59876;SDS011;45749;51.140;17.184;2023-06-26T13:58:18;5.33;;;3.57;;
59876;SDS011;45749;51.140;17.184;2023-06-26T14:00:47;2.95;;;2.67;;
59876;SDS011;45749;51.140;17.184;2023-06-26T14:03:13;4.35;;;3.05;;
59876;SDS011;45749;51.140;17.184;2023-06-26T14:05:38;3.90;;;2.60;;
59876;SDS011;45749;51.140;17.184;2023-06-26T14:08:05;4.65;;;3.22;;
59876;SDS011;45749;51.140;17.184;2023-06-26T14:10:33;7.28;;;3.15;;
59876;SDS011;45749;51.140;17.184;2023-06-26T14:12:58;5.22;;;3.13;;
59876;SDS011;45749;51.140;17.184;2023-06-26T14:15:24;5.28;;;2.40;;
59876;SDS011;45749;51.140;17.184;2023-06-26T14:17:50;3.30;;;2.75;;
59876;SDS011;45749;51.140;17.184;2023-06-26T14:20:16;3.40;;;2.70;;
59876;SDS011;45749;51.140;17.184;2023-06-26T14:22:42;4.90;;;2.95;;
59876;SDS011;45749;51.140;17.184;2023-06-26T14:25:09;3.88;;;3.30;;
59876;SDS011;45749;51.140;17.184;2023-06-26T14:27:35;3.38;;;2.40;;
59876;SDS011;45749;51.140;17.184;2023-06-26T14:30:02;4.35;;;3.03;;
59876;SDS011;45749;51.140;17.184;2023-06-26T14:32:30;5.30;;;2.70;;
59876;SDS011;45749;51.140;17.184;2023-06-26T14:34:56;6.88;;;3.42;;
59876;SDS011;45749;51.140;17.184;2023-06-26T14:37:22;3.38;;;2.55;;
59876;SDS011;45749;51.140;17.184;2023-06-26T14:39:49;3.00;;;2.70;;
59876;SDS011;45749;51.140;17.184;2023-06-26T14:42:14;4.35;;;3.25;;
59876;SDS011;45749;51.140;17.184;2023-06-26T14:44:39;3.23;;;2.80;;
59876;SDS011;45749;51.140;17.184;2023-06-26T14:47:05;4.83;;;3.37;;